createdAt,value
2018-05-06T00:01:06.707Z,50.00
2018-05-06T00:03:47.112Z,51.20
2018-05-06T00:06:28.024Z,50.00
2018-05-06T00:09:08.470Z,50.00
2018-05-06T00:11:48.947Z,49.80
2018-05-06T00:14:30.424Z,50.30
2018-05-06T00:17:11.603Z,51.20
2018-05-06T00:19:51.887Z,51.30
2018-05-06T00:22:32.324Z,51.30
2018-05-06T00:25:12.886Z,51.30
2018-05-06T00:27:53.188Z,51.40
2018-05-06T00:30:33.647Z,52.30
2018-05-06T00:33:13.973Z,52.10
2018-05-06T00:35:54.431Z,51.70
2018-05-06T00:38:35.149Z,52.50
2018-05-06T00:41:15.503Z,52.80
2018-05-06T00:43:57.258Z,53.40
2018-05-06T00:46:37.929Z,53.50
2018-05-06T00:49:18.408Z,54.10
2018-05-06T00:51:59.265Z,54.30
2018-05-06T00:54:44.495Z,54.50
2018-05-06T00:57:24.872Z,54.40
2018-05-06T01:00:05.269Z,53.90
2018-05-06T01:02:45.738Z,53.90
2018-05-06T01:05:27.582Z,54.50
2018-05-06T01:08:08.535Z,54.50
2018-05-06T01:10:49.360Z,52.60
2018-05-06T01:13:29.699Z,50.90
2018-05-06T01:16:10.148Z,50.80
2018-05-06T01:18:50.636Z,50.30
2018-05-06T01:21:30.912Z,50.10
2018-05-06T01:24:11.374Z,50.90
2018-05-06T01:26:51.712Z,50.50
2018-05-06T01:29:31.887Z,50.50
2018-05-06T01:32:12.192Z,50.30
2018-05-06T01:34:52.437Z,50.80
2018-05-06T01:37:32.873Z,51.20
2018-05-06T01:40:13.216Z,51.10
2018-05-06T01:42:53.537Z,51.70
2018-05-06T01:45:34.021Z,51.50
2018-05-06T01:48:14.433Z,51.10
2018-05-06T01:50:56.564Z,51.00
2018-05-06T01:53:36.914Z,51.00
2018-05-06T01:56:18.093Z,50.80
2018-05-06T01:58:59.157Z,50.30
2018-05-06T02:01:51.895Z,50.30
2018-05-06T02:04:33.140Z,51.10
2018-05-06T02:07:13.645Z,52.10
2018-05-06T02:09:54.157Z,53.30
2018-05-06T02:12:34.482Z,54.40
2018-05-06T02:15:14.799Z,54.90
2018-05-06T02:17:55.176Z,55.40
2018-05-06T02:20:35.956Z,54.90
2018-05-06T02:23:16.348Z,54.60
2018-05-06T02:25:56.674Z,54.40
2018-05-06T02:28:37.121Z,54.40
2018-05-06T02:31:17.323Z,54.20
2018-05-06T02:33:58.560Z,54.10
2018-05-06T02:36:38.891Z,53.90
2018-05-06T02:39:19.836Z,54.10
2018-05-06T02:42:00.132Z,53.90
2018-05-06T02:44:40.637Z,53.00
2018-05-06T02:47:21.524Z,52.80
2018-05-06T02:50:02.037Z,53.10
2018-05-06T02:52:42.396Z,53.10
2018-05-06T02:55:23.721Z,53.40
2018-05-06T02:58:04.179Z,53.50
2018-05-06T03:00:45.259Z,55.60
2018-05-06T03:03:25.689Z,54.20
2018-05-06T03:06:06.913Z,54.70
2018-05-06T03:08:47.239Z,54.70
2018-05-06T03:11:27.560Z,55.00
2018-05-06T03:14:07.830Z,55.20
2018-05-06T03:16:48.281Z,55.40
2018-05-06T03:19:28.786Z,55.50
2018-05-06T03:22:09.132Z,55.30
2018-05-06T03:24:49.976Z,55.20
2018-05-06T03:27:30.296Z,55.60
2018-05-06T03:30:10.737Z,56.00
2018-05-06T03:32:51.748Z,56.80
2018-05-06T03:35:33.194Z,56.60
2018-05-06T03:38:13.572Z,56.80
2018-05-06T03:40:53.859Z,57.20
2018-05-06T03:43:34.093Z,56.90
2018-05-06T03:46:14.439Z,56.00
2018-05-06T03:48:54.936Z,56.20
2018-05-06T03:51:35.221Z,55.60
2018-05-06T03:54:15.442Z,55.60
2018-05-06T03:57:13.684Z,55.80
2018-05-06T04:00:12.021Z,55.90
2018-05-06T04:02:52.888Z,56.40
2018-05-06T04:05:33.253Z,56.60
2018-05-06T04:08:13.584Z,56.90
2018-05-06T04:10:54.429Z,56.80
2018-05-06T04:13:35.460Z,56.90
2018-05-06T04:16:16.360Z,56.80
2018-05-06T04:18:56.629Z,57.20
2018-05-06T04:21:37.089Z,57.50
2018-05-06T04:24:17.504Z,58.00
2018-05-06T04:26:58.596Z,57.90
2018-05-06T04:29:38.950Z,58.40
2018-05-06T04:32:19.978Z,59.00
2018-05-06T04:35:00.364Z,59.10
2018-05-06T04:37:40.687Z,59.40
2018-05-06T04:40:21.647Z,59.30
2018-05-06T04:43:02.049Z,59.50
2018-05-06T04:45:42.423Z,59.10
2018-05-06T04:48:22.664Z,59.00
2018-05-06T04:51:03.112Z,59.10
2018-05-06T04:53:44.372Z,59.70
2018-05-06T04:56:25.632Z,59.80
2018-05-06T04:59:06.128Z,59.40
2018-05-06T05:01:46.572Z,59.30
2018-05-06T05:04:27.042Z,59.70
2018-05-06T05:07:07.231Z,59.70
2018-05-06T05:09:47.420Z,60.00
2018-05-06T05:12:28.746Z,59.30
2018-05-06T05:15:09.072Z,59.20
2018-05-06T05:17:49.994Z,59.30
2018-05-06T05:20:31.945Z,60.10
2018-05-06T05:23:12.353Z,60.00
2018-05-06T05:25:52.596Z,59.90
2018-05-06T05:28:33.643Z,59.10
2018-05-06T05:31:14.129Z,59.10
2018-05-06T05:33:54.549Z,58.60
2018-05-06T05:36:34.919Z,58.90
2018-05-06T05:39:16.090Z,58.60
2018-05-06T05:41:56.567Z,58.80
2018-05-06T05:44:37.648Z,58.70
2018-05-06T05:47:17.985Z,58.60
2018-05-06T05:49:58.552Z,58.50
2018-05-06T05:52:38.892Z,58.00
2018-05-06T05:55:20.037Z,58.30
2018-05-06T05:58:00.428Z,57.80
2018-05-06T06:00:40.616Z,57.20
2018-05-06T06:03:21.844Z,57.00
2018-05-06T06:06:02.588Z,57.00
2018-05-06T06:08:43.043Z,56.60
2018-05-06T06:11:23.837Z,56.50
2018-05-06T06:14:04.156Z,56.70
2018-05-06T06:16:44.437Z,57.30
2018-05-06T06:19:24.954Z,56.80
2018-05-06T06:22:05.357Z,56.70
2018-05-06T06:24:45.694Z,56.30
2018-05-06T06:27:26.016Z,56.60
2018-05-06T06:30:06.488Z,57.00
2018-05-06T06:32:47.173Z,56.10
2018-05-06T06:35:28.623Z,55.60
2018-05-06T06:38:09.070Z,56.20
2018-05-06T06:40:49.860Z,55.60
2018-05-06T06:43:30.204Z,55.80
2018-05-06T06:46:10.564Z,55.70
2018-05-06T06:48:51.616Z,55.70
2018-05-06T06:51:31.949Z,55.60
2018-05-06T06:54:12.252Z,55.50
2018-05-06T06:56:53.278Z,54.70
2018-05-06T06:59:33.542Z,53.10
2018-05-06T07:02:14.633Z,52.60
2018-05-06T07:04:56.486Z,52.30
2018-05-06T07:07:36.841Z,52.20
2018-05-06T07:10:19.946Z,51.60
2018-05-06T07:13:00.997Z,50.70
2018-05-06T07:15:41.306Z,49.90
2018-05-06T07:18:23.214Z,49.60
2018-05-06T07:21:03.532Z,49.60
2018-05-06T07:23:44.045Z,48.60
2018-05-06T07:26:24.397Z,48.80
2018-05-06T07:29:04.830Z,48.90
2018-05-06T07:31:46.213Z,47.00
2018-05-06T07:34:27.428Z,46.80
2018-05-06T07:37:07.932Z,46.60
2018-05-06T07:39:48.615Z,46.40
2018-05-06T07:42:28.891Z,45.80
2018-05-06T07:45:10.237Z,46.70
2018-05-06T07:47:51.462Z,47.10
2018-05-06T07:50:38.308Z,46.80
2018-05-06T07:53:20.148Z,46.30
2018-05-06T07:56:00.612Z,47.40
2018-05-06T07:58:41.000Z,47.40
2018-05-06T08:01:21.758Z,46.60
2018-05-06T08:04:02.131Z,45.80
2018-05-06T08:06:43.220Z,45.30
2018-05-06T08:09:23.925Z,44.70
2018-05-06T08:12:04.444Z,44.60
2018-05-06T08:14:44.734Z,43.20
2018-05-06T08:17:25.207Z,43.70
2018-05-06T08:20:05.536Z,43.80
2018-05-06T08:22:46.013Z,45.50
2018-05-06T08:25:26.464Z,44.70
2018-05-06T08:28:06.809Z,44.10
2018-05-06T08:30:47.116Z,44.60
2018-05-06T08:33:27.616Z,44.10
2018-05-06T08:36:07.928Z,43.90
2018-05-06T08:38:53.719Z,42.90
2018-05-06T08:41:35.132Z,43.80
2018-05-06T08:44:15.601Z,42.50
2018-05-06T08:46:56.148Z,43.60
2018-05-06T08:49:36.568Z,44.10
2018-05-06T08:52:16.872Z,43.60
2018-05-06T08:54:57.176Z,42.00
2018-05-06T08:57:38.258Z,43.90
2018-05-06T09:00:18.742Z,44.70
2018-05-06T09:02:59.049Z,44.70
2018-05-06T09:05:39.741Z,43.50
2018-05-06T09:08:20.440Z,43.60
2018-05-06T09:11:01.066Z,44.50
2018-05-06T09:13:42.060Z,46.30
2018-05-06T09:16:23.065Z,46.20
2018-05-06T09:19:03.356Z,46.50
2018-05-06T09:21:43.809Z,45.50
2018-05-06T09:24:24.773Z,45.20
2018-05-06T09:27:05.171Z,45.80
2018-05-06T09:29:45.511Z,46.10
2018-05-06T09:32:25.922Z,46.10
2018-05-06T09:35:06.238Z,45.30
2018-05-06T09:37:46.719Z,46.70
2018-05-06T09:40:26.958Z,47.20
2018-05-06T09:43:07.339Z,47.40
2018-05-06T09:45:47.696Z,46.70
2018-05-06T09:48:28.143Z,46.70
2018-05-06T09:51:08.497Z,46.10
2018-05-06T09:53:50.493Z,45.50
2018-05-06T09:56:30.854Z,46.90
2018-05-06T09:59:11.173Z,47.70
2018-05-06T10:01:52.408Z,46.20
2018-05-06T10:04:32.936Z,45.70
2018-05-06T10:07:13.416Z,45.90
2018-05-06T10:09:53.837Z,45.90
2018-05-06T10:12:34.160Z,45.00
2018-05-06T10:15:14.576Z,46.30
2018-05-06T10:17:54.917Z,45.90
2018-05-06T10:20:35.245Z,46.50
2018-05-06T10:23:15.604Z,44.50
2018-05-06T10:25:56.012Z,46.10
2018-05-06T10:28:37.125Z,45.80
2018-05-06T10:31:17.896Z,45.80
2018-05-06T10:33:58.412Z,46.10
2018-05-06T10:36:38.777Z,46.20
2018-05-06T10:39:19.081Z,46.50
2018-05-06T10:42:00.359Z,46.60
2018-05-06T10:44:40.858Z,46.50
2018-05-06T10:47:22.250Z,46.50
2018-05-06T10:50:02.457Z,45.80
2018-05-06T10:52:42.827Z,46.40
2018-05-06T10:55:33.487Z,46.10
2018-05-06T10:58:13.804Z,46.40
2018-05-06T11:00:57.290Z,46.80
2018-05-06T11:03:37.800Z,46.80
2018-05-06T11:06:18.160Z,46.80
2018-05-06T11:08:58.490Z,46.20
2018-05-06T11:11:39.352Z,45.90
2018-05-06T11:14:22.333Z,45.60
2018-05-06T11:17:03.506Z,45.40
2018-05-06T11:19:43.847Z,45.50
2018-05-06T11:22:24.478Z,45.10
2018-05-06T11:25:05.458Z,45.00
2018-05-06T11:27:45.872Z,44.90
2018-05-06T11:30:26.244Z,43.30
2018-05-06T11:33:06.660Z,43.60
2018-05-06T11:35:47.152Z,44.50
2018-05-06T11:38:29.215Z,43.50
2018-05-06T11:41:11.727Z,43.30
2018-05-06T11:43:52.810Z,43.90
2018-05-06T11:46:33.295Z,42.70
2018-05-06T11:49:13.785Z,43.80
2018-05-06T11:51:54.551Z,44.50
2018-05-06T11:54:34.883Z,43.90
2018-05-06T11:57:15.325Z,43.70
2018-05-06T11:59:55.809Z,44.70
2018-05-06T12:02:36.259Z,45.00
2018-05-06T12:05:17.514Z,44.50
2018-05-06T12:07:57.891Z,44.60
2018-05-06T12:10:39.090Z,45.10
2018-05-06T12:13:19.507Z,45.10
2018-05-06T12:15:59.852Z,44.90
2018-05-06T12:18:40.201Z,44.80
2018-05-06T12:21:22.308Z,44.80
2018-05-06T12:24:03.305Z,45.00
2018-05-06T12:26:43.583Z,45.00
2018-05-06T12:29:23.931Z,45.90
2018-05-06T12:32:04.362Z,45.50
2018-05-06T12:34:44.719Z,45.20
2018-05-06T12:37:25.028Z,45.20
2018-05-06T12:40:06.292Z,46.60
2018-05-06T12:42:46.609Z,46.50
2018-05-06T12:45:27.089Z,45.40
2018-05-06T12:48:07.416Z,44.50
2018-05-06T12:50:48.977Z,44.90
2018-05-06T12:53:31.182Z,44.70
2018-05-06T12:56:11.528Z,44.70
2018-05-06T12:58:52.508Z,44.70
2018-05-06T13:01:32.948Z,43.40
2018-05-06T13:04:13.264Z,43.30
2018-05-06T13:06:53.578Z,43.70
2018-05-06T13:09:34.083Z,43.70
2018-05-06T13:12:14.458Z,43.70
2018-05-06T13:14:55.886Z,43.80
2018-05-06T13:17:38.518Z,43.70
2018-05-06T13:20:19.016Z,42.30
2018-05-06T13:22:59.674Z,43.50
2018-05-06T13:25:40.120Z,43.70
2018-05-06T13:28:22.032Z,43.50
2018-05-06T13:31:03.143Z,43.30
2018-05-06T13:33:45.054Z,43.10
2018-05-06T13:36:26.115Z,42.90
2018-05-06T13:39:06.617Z,42.90
2018-05-06T13:41:46.989Z,43.30
2018-05-06T13:44:27.373Z,44.10
2018-05-06T13:47:07.695Z,43.20
2018-05-06T13:49:48.295Z,42.30
2018-05-06T13:52:29.712Z,42.90
2018-05-06T13:55:10.101Z,43.50
2018-05-06T13:57:51.595Z,43.60
2018-05-06T14:00:32.132Z,43.80
2018-05-06T14:03:12.360Z,43.60
2018-05-06T14:05:52.653Z,44.10
2018-05-06T14:08:34.202Z,44.00
2018-05-06T14:11:14.669Z,44.40
2018-05-06T14:13:56.064Z,44.20
2018-05-06T14:16:36.315Z,44.00
2018-05-06T14:19:17.289Z,43.60
2018-05-06T14:21:57.604Z,43.70
2018-05-06T14:24:38.040Z,43.40
2018-05-06T14:27:19.128Z,43.20
2018-05-06T14:29:59.549Z,43.10
2018-05-06T14:32:40.504Z,43.10
2018-05-06T14:35:21.628Z,43.00
2018-05-06T14:38:02.124Z,43.60
2018-05-06T14:40:42.520Z,43.60
2018-05-06T14:43:23.616Z,44.00
2018-05-06T14:46:03.927Z,43.10
2018-05-06T14:48:45.076Z,43.20
2018-05-06T14:51:25.377Z,43.30
2018-05-06T14:54:05.993Z,42.60
2018-05-06T14:56:46.328Z,42.30
2018-05-06T14:59:26.664Z,42.20
2018-05-06T15:04:56.836Z,41.80
2018-05-06T15:07:37.309Z,42.40
2018-05-06T15:10:17.481Z,41.60
2018-05-06T15:12:58.140Z,41.70
2018-05-06T15:15:38.616Z,41.20
2018-05-06T15:18:19.684Z,41.90
2018-05-06T15:21:00.863Z,41.70
2018-05-06T15:23:41.317Z,41.60
2018-05-06T15:26:22.371Z,42.20
2018-05-06T15:29:02.829Z,41.20
2018-05-06T15:31:43.897Z,41.70
2018-05-06T15:34:24.311Z,42.10
2018-05-06T15:37:04.661Z,41.70
2018-05-06T15:39:44.978Z,42.30
2018-05-06T15:42:25.357Z,41.50
2018-05-06T15:45:06.622Z,41.70
2018-05-06T15:47:46.962Z,41.90
2018-05-06T15:50:28.950Z,42.40
2018-05-06T15:53:09.352Z,42.10
2018-05-06T15:55:49.616Z,42.10
2018-05-06T15:58:30.103Z,42.40
2018-05-06T16:01:11.218Z,41.90
2018-05-06T16:04:09.932Z,41.80
2018-05-06T16:06:51.105Z,42.60
2018-05-06T16:09:33.023Z,43.10
2018-05-06T16:12:13.486Z,43.50
2018-05-06T16:14:55.012Z,44.40
2018-05-06T16:17:35.335Z,44.40
2018-05-06T16:20:15.894Z,44.70
2018-05-06T16:22:57.252Z,44.20
2018-05-06T16:25:37.766Z,44.00
2018-05-06T16:28:18.167Z,44.10
2018-05-06T16:30:58.813Z,44.60
2018-05-06T16:33:39.089Z,44.60
2018-05-06T16:36:19.415Z,44.70
2018-05-06T16:38:59.760Z,44.70
2018-05-06T16:41:41.055Z,44.40
2018-05-06T16:44:22.239Z,44.40
2018-05-06T16:47:02.584Z,44.80
2018-05-06T16:49:43.174Z,44.80
2018-05-06T16:52:24.299Z,45.40
2018-05-06T16:55:06.525Z,44.90
2018-05-06T16:57:46.956Z,44.70
2018-05-06T17:00:28.165Z,44.00
2018-05-06T17:03:09.405Z,44.40
2018-05-06T17:05:49.705Z,44.40
2018-05-06T17:08:30.178Z,44.30
2018-05-06T17:11:11.260Z,44.40
2018-05-06T17:13:52.201Z,44.30
2018-05-06T17:16:34.084Z,44.70
2018-05-06T17:19:14.457Z,44.80
2018-05-06T17:21:55.191Z,44.10
2018-05-06T17:24:35.461Z,44.10
2018-05-06T17:27:15.782Z,44.10
2018-05-06T17:29:57.617Z,44.10
2018-05-06T17:32:41.920Z,44.40
2018-05-06T17:35:24.152Z,44.50
2018-05-06T17:38:04.644Z,44.70
2018-05-06T17:40:44.864Z,44.40
2018-05-06T17:43:25.836Z,44.70
2018-05-06T17:46:07.066Z,44.90
2018-05-06T17:48:49.869Z,44.90
2018-05-06T17:51:30.055Z,45.10
2018-05-06T17:54:10.667Z,45.30
2018-05-06T17:56:52.844Z,45.80
2018-05-06T17:59:33.152Z,45.80
2018-05-06T18:02:14.247Z,46.10
2018-05-06T18:04:56.028Z,46.30
2018-05-06T18:07:37.325Z,46.50
2018-05-06T18:10:18.271Z,46.90
2018-05-06T18:12:58.624Z,47.00
2018-05-06T18:15:38.990Z,47.20
2018-05-06T18:18:19.304Z,47.20
2018-05-06T18:20:59.841Z,47.30
2018-05-06T18:23:40.326Z,47.60
2018-05-06T18:26:21.149Z,47.50
2018-05-06T18:29:01.542Z,47.70
2018-05-06T18:31:42.839Z,47.80
2018-05-06T18:34:23.824Z,47.70
2018-05-06T18:37:04.256Z,47.50
2018-05-06T18:39:45.436Z,47.70
2018-05-06T18:42:25.906Z,47.70
2018-05-06T18:45:06.421Z,47.80
2018-05-06T18:47:47.601Z,48.00
2018-05-06T18:50:27.915Z,47.90
2018-05-06T18:53:08.998Z,48.00
2018-05-06T18:55:51.766Z,48.00
2018-05-06T18:58:32.594Z,48.10
2018-05-06T19:01:12.939Z,48.20
2018-05-06T19:03:53.228Z,48.30
2018-05-06T19:06:33.576Z,48.10
2018-05-06T19:09:15.880Z,48.30
2018-05-06T19:11:56.111Z,48.30
2018-05-06T19:14:36.628Z,48.30
2018-05-06T19:17:17.103Z,48.60
2018-05-06T19:19:58.476Z,49.10
2018-05-06T19:22:39.043Z,48.90
2018-05-06T19:25:19.659Z,48.80
2018-05-06T19:28:00.139Z,49.00
2018-05-06T19:30:41.028Z,49.10
2018-05-06T19:33:22.351Z,49.40
2018-05-06T19:36:02.641Z,49.10
2018-05-06T19:38:42.957Z,49.30
2018-05-06T19:41:23.280Z,49.70
2018-05-06T19:44:03.686Z,50.10
2018-05-06T19:46:44.032Z,50.20
2018-05-06T19:49:24.671Z,50.30
2018-05-06T19:52:05.100Z,50.40
2018-05-06T19:54:48.556Z,50.80
2018-05-06T19:57:29.046Z,50.80
2018-05-06T20:00:09.460Z,50.80
2018-05-06T20:02:49.820Z,50.90
2018-05-06T20:05:31.245Z,50.60
2018-05-06T20:08:11.577Z,50.80
2018-05-06T20:10:52.840Z,50.60
2018-05-06T20:13:33.170Z,50.60
2018-05-06T20:16:13.557Z,50.60
2018-05-06T20:18:54.970Z,50.90
2018-05-06T20:21:35.426Z,50.80
2018-05-06T20:24:16.241Z,50.70
2018-05-06T20:26:56.592Z,50.80
2018-05-06T20:29:36.871Z,50.70
2018-05-06T20:32:17.881Z,51.00
2018-05-06T20:34:58.284Z,51.00
2018-05-06T20:37:39.448Z,51.10
2018-05-06T20:40:19.824Z,51.10
2018-05-06T20:43:00.383Z,51.30
2018-05-06T20:45:40.585Z,51.30
2018-05-06T20:48:21.612Z,51.30
2018-05-06T20:51:01.956Z,51.60
2018-05-06T20:53:43.258Z,51.70
2018-05-06T20:56:23.614Z,51.60
2018-05-06T20:59:04.828Z,51.90
2018-05-06T21:01:45.290Z,51.80
2018-05-06T21:04:26.013Z,52.20
2018-05-06T21:07:06.387Z,52.10
2018-05-06T21:09:46.882Z,52.10
2018-05-06T21:12:27.352Z,52.10
2018-05-06T21:15:07.842Z,52.10
2018-05-06T21:17:50.212Z,52.60
2018-05-06T21:20:30.416Z,52.40
2018-05-06T21:23:12.651Z,52.70
2018-05-06T21:25:54.299Z,52.10
2018-05-06T21:28:35.660Z,52.20
2018-05-06T21:31:16.318Z,52.10
2018-05-06T21:33:58.083Z,51.60
2018-05-06T21:36:38.425Z,51.60
2018-05-06T21:39:18.849Z,51.30
2018-05-06T21:41:59.217Z,51.10
2018-05-06T21:44:40.432Z,51.30
2018-05-06T21:47:21.732Z,51.00
2018-05-06T21:50:02.065Z,50.80
2018-05-06T21:52:42.374Z,50.30
2018-05-06T21:55:23.380Z,50.60
2018-05-06T21:58:03.689Z,50.70
2018-05-06T22:00:44.842Z,50.80
2018-05-06T22:03:25.400Z,50.80
2018-05-06T22:06:06.748Z,49.80
2018-05-06T22:08:47.082Z,50.40
2018-05-06T22:11:27.528Z,50.20
2018-05-06T22:14:08.011Z,50.30
2018-05-06T22:16:48.400Z,50.40
2018-05-06T22:19:29.181Z,50.40
2018-05-06T22:25:05.225Z,50.40
2018-05-06T22:27:45.525Z,50.30
2018-05-06T22:32:11.680Z,50.80
2018-05-06T22:34:52.842Z,50.10
2018-05-06T22:37:33.039Z,50.00
2018-05-06T22:40:13.451Z,49.90
2018-05-06T22:42:54.284Z,50.20
2018-05-06T22:45:34.556Z,50.40
2018-05-06T22:48:15.760Z,50.50
2018-05-06T22:50:56.160Z,50.60
2018-05-06T22:53:36.472Z,51.00
2018-05-06T22:56:17.640Z,51.50
2018-05-06T22:58:58.505Z,51.40
2018-05-06T23:01:38.817Z,51.30
2018-05-06T23:04:19.244Z,52.00
2018-05-06T23:07:00.405Z,51.70
2018-05-06T23:09:40.829Z,51.90
2018-05-06T23:12:21.758Z,51.90
2018-05-06T23:15:02.089Z,51.90
2018-05-06T23:17:42.521Z,51.90
2018-05-06T23:20:23.633Z,51.90
2018-05-06T23:23:03.935Z,51.90
2018-05-06T23:25:44.465Z,51.80
2018-05-06T23:28:26.110Z,51.50
2018-05-06T23:31:06.413Z,51.50
2018-05-06T23:33:46.757Z,51.40
2018-05-06T23:36:27.147Z,51.40
2018-05-06T23:39:07.559Z,51.40
2018-05-06T23:41:47.768Z,51.50
2018-05-06T23:44:29.579Z,51.40
2018-05-06T23:47:09.965Z,51.40
2018-05-06T23:49:50.153Z,51.50
2018-05-06T23:52:30.588Z,51.40
2018-05-06T23:55:10.952Z,51.40
2018-05-06T23:57:53.188Z,51.40
